createdAt,value
2022-10-04T00:01:27.962Z,64.42
2022-10-04T00:04:11.629Z,64.97
2022-10-04T00:06:57.433Z,63.98
2022-10-04T00:09:36.315Z,61.52
2022-10-04T00:12:06.060Z,61.72
2022-10-04T00:14:39.634Z,61.56
2022-10-04T00:17:15.151Z,61.82
2022-10-04T00:19:47.877Z,62.29
2022-10-04T00:22:18.625Z,64.17
2022-10-04T00:25:13.803Z,61.89
2022-10-04T00:28:20.346Z,60.43
2022-10-04T00:31:12.165Z,60.87
2022-10-04T00:33:50.561Z,61.77
2022-10-04T00:36:24.604Z,61.28
2022-10-04T00:39:07.327Z,61.58
2022-10-04T00:41:47.395Z,60.52
2022-10-04T00:44:44.775Z,61.62
2022-10-04T00:47:35.269Z,62.65
2022-10-04T00:50:26.419Z,61.47
2022-10-04T00:52:59.007Z,61.92
2022-10-04T00:55:36.756Z,60.08
2022-10-04T00:58:15.661Z,59.93
2022-10-04T01:00:46.053Z,65.00
2022-10-04T01:03:46.920Z,64.47
2022-10-04T01:06:15.495Z,61.64
2022-10-04T01:08:54.086Z,60.65
2022-10-04T01:11:30.417Z,60.09
2022-10-04T01:14:08.936Z,59.64
2022-10-04T01:16:37.979Z,60.60
2022-10-04T01:19:51.296Z,65.02
2022-10-04T01:22:42.156Z,64.08
2022-10-04T01:25:10.126Z,61.34
2022-10-04T01:27:41.632Z,62.33
2022-10-04T01:30:13.559Z,62.08
2022-10-04T01:32:41.761Z,61.29
2022-10-04T01:35:13.149Z,63.04
2022-10-04T01:37:41.613Z,64.51
2022-10-04T01:40:11.165Z,61.53
2022-10-04T01:42:49.305Z,61.30
2022-10-04T01:45:28.296Z,62.11
2022-10-04T01:48:08.697Z,63.09
2022-10-04T01:50:59.873Z,63.71
2022-10-04T01:53:29.933Z,64.29
2022-10-04T01:56:08.366Z,63.62
2022-10-04T01:58:45.508Z,62.82
2022-10-04T02:01:30.804Z,63.32
2022-10-04T02:04:15.474Z,64.93
2022-10-04T02:06:48.958Z,63.73
2022-10-04T02:09:23.013Z,62.53
2022-10-04T02:11:53.204Z,62.62
2022-10-04T02:14:33.297Z,62.09
2022-10-04T02:17:10.656Z,61.70
2022-10-04T02:19:42.615Z,61.81
2022-10-04T02:22:11.293Z,61.98
2022-10-04T02:24:44.197Z,63.04
2022-10-04T02:27:13.258Z,61.28
2022-10-04T02:29:41.299Z,60.56
2022-10-04T02:32:28.928Z,59.71
2022-10-04T02:34:58.196Z,63.20
2022-10-04T02:37:28.771Z,64.17
2022-10-04T02:40:06.357Z,61.79
2022-10-04T02:42:34.588Z,62.24
2022-10-04T02:45:30.291Z,62.89
2022-10-04T02:48:03.813Z,63.72
2022-10-04T02:50:41.686Z,62.59
2022-10-04T02:53:19.418Z,61.26
2022-10-04T02:55:48.492Z,60.72
2022-10-04T02:58:20.489Z,61.00
2022-10-04T03:01:00.134Z,61.75
2022-10-04T03:03:34.921Z,61.19
2022-10-04T03:06:11.299Z,61.31
2022-10-04T03:08:56.123Z,61.10
2022-10-04T03:11:25.227Z,61.07
2022-10-04T03:13:57.407Z,57.96
2022-10-04T03:16:26.418Z,62.66
2022-10-04T03:18:57.544Z,64.53
2022-10-04T03:21:26.589Z,64.12
2022-10-04T03:23:55.074Z,63.20
2022-10-04T03:26:32.817Z,62.17
2022-10-04T03:29:01.620Z,62.50
2022-10-04T03:32:19.629Z,61.19
2022-10-04T03:34:58.159Z,61.07
2022-10-04T03:37:29.086Z,61.30
2022-10-04T03:39:58.350Z,62.01
2022-10-04T03:42:30.500Z,62.96
2022-10-04T03:45:06.370Z,60.53
2022-10-04T03:47:37.861Z,59.91
2022-10-04T03:50:15.901Z,59.43
2022-10-04T03:52:58.985Z,60.19
2022-10-04T03:55:38.942Z,64.77
2022-10-04T03:58:09.688Z,62.98
2022-10-04T04:00:44.188Z,60.79
2022-10-04T04:03:19.225Z,60.26
2022-10-04T04:05:54.909Z,60.94
2022-10-04T04:08:26.826Z,60.60
2022-10-04T04:11:00.418Z,61.04
2022-10-04T04:13:58.494Z,61.86
2022-10-04T04:16:27.610Z,62.12
2022-10-04T04:19:01.355Z,61.34
2022-10-04T04:21:31.332Z,60.88
2022-10-04T04:24:03.509Z,60.44
2022-10-04T04:26:42.313Z,64.10
2022-10-04T04:29:24.512Z,64.68
2022-10-04T04:31:58.983Z,63.65
2022-10-04T04:34:30.104Z,63.68
2022-10-04T04:37:00.556Z,62.17
2022-10-04T04:39:41.392Z,60.28
2022-10-04T04:42:12.177Z,61.33
2022-10-04T04:44:49.223Z,66.20
2022-10-04T04:47:34.100Z,64.99
2022-10-04T04:50:13.351Z,62.91
2022-10-04T04:52:45.226Z,62.51
2022-10-04T04:55:20.307Z,61.61
2022-10-04T04:57:50.154Z,61.85
2022-10-04T05:00:20.618Z,61.13
2022-10-04T05:02:58.537Z,60.29
2022-10-04T05:05:35.230Z,59.73
2022-10-04T05:08:04.680Z,60.46
2022-10-04T05:10:34.341Z,59.50
2022-10-04T05:13:04.427Z,62.89
2022-10-04T05:15:35.865Z,64.40
2022-10-04T05:18:26.972Z,63.26
2022-10-04T05:20:59.049Z,61.70
2022-10-04T05:23:27.917Z,61.82
2022-10-04T05:25:56.157Z,59.28
2022-10-04T05:28:25.047Z,63.00
2022-10-04T05:31:08.223Z,65.47
2022-10-04T05:33:51.969Z,64.21
2022-10-04T05:36:36.652Z,63.80
2022-10-04T05:39:16.859Z,61.68
2022-10-04T05:41:58.301Z,61.42
2022-10-04T05:44:45.923Z,61.63
2022-10-04T05:47:15.611Z,61.45
2022-10-04T05:49:46.633Z,60.33
2022-10-04T05:52:24.955Z,63.06
2022-10-04T05:55:33.299Z,63.68
2022-10-04T05:58:28.427Z,62.97
2022-10-04T06:01:16.580Z,59.86
2022-10-04T06:04:38.733Z,60.63
2022-10-04T06:07:15.105Z,65.02
2022-10-04T06:10:04.354Z,64.02
2022-10-04T06:12:44.674Z,62.14
2022-10-04T06:15:39.232Z,61.15
2022-10-04T06:18:48.450Z,59.73
2022-10-04T06:21:45.636Z,61.60
2022-10-04T06:24:26.741Z,67.16
2022-10-04T06:27:04.896Z,64.83
2022-10-04T06:29:40.056Z,61.34
2022-10-04T06:32:29.770Z,61.96
2022-10-04T06:35:04.264Z,59.94
2022-10-04T06:37:55.199Z,59.34
2022-10-04T06:40:52.129Z,62.41
2022-10-04T06:43:27.060Z,65.63
2022-10-04T06:46:11.768Z,62.33
2022-10-04T06:48:58.312Z,59.42
2022-10-04T06:51:32.449Z,60.67
2022-10-04T06:54:12.672Z,64.67
2022-10-04T06:56:53.522Z,63.93
2022-10-04T06:59:30.606Z,61.67
2022-10-04T07:02:13.326Z,60.78
2022-10-04T07:05:10.224Z,60.29
2022-10-04T07:07:45.131Z,59.47
2022-10-04T07:10:25.338Z,63.26
2022-10-04T07:13:11.806Z,64.65
2022-10-04T07:15:59.813Z,62.86
2022-10-04T07:18:49.385Z,62.88
2022-10-04T07:21:18.881Z,61.66
2022-10-04T07:23:53.880Z,60.64
2022-10-04T07:26:30.964Z,59.18
2022-10-04T07:29:21.820Z,60.75
2022-10-04T07:32:09.595Z,65.41
2022-10-04T07:34:45.572Z,64.28
2022-10-04T07:37:15.176Z,60.43
2022-10-04T07:40:22.186Z,59.24
2022-10-04T07:43:20.137Z,60.95
2022-10-04T07:45:50.323Z,66.51
2022-10-04T07:48:24.039Z,64.48
2022-10-04T07:50:51.827Z,61.77
2022-10-04T07:53:34.516Z,61.84
2022-10-04T07:56:16.239Z,60.82
2022-10-04T07:59:08.627Z,58.42
2022-10-04T08:02:13.062Z,61.43
2022-10-04T08:05:20.708Z,64.26
2022-10-04T08:08:00.423Z,61.34
2022-10-04T08:10:57.049Z,58.43
2022-10-04T08:13:41.808Z,62.28
2022-10-04T08:16:19.966Z,63.61
2022-10-04T08:19:10.336Z,62.38
2022-10-04T08:22:16.623Z,59.47
2022-10-04T08:24:53.841Z,62.64
2022-10-04T08:27:33.756Z,65.99
2022-10-04T08:30:16.423Z,63.84
2022-10-04T08:32:56.504Z,62.95
2022-10-04T08:35:48.773Z,60.97
2022-10-04T08:38:19.869Z,57.31
2022-10-04T08:41:25.484Z,61.52
2022-10-04T08:44:11.707Z,64.00
2022-10-04T08:47:21.818Z,62.26
2022-10-04T08:50:14.769Z,60.27
2022-10-04T08:53:03.869Z,58.56
2022-10-04T08:55:52.746Z,62.10
2022-10-04T08:58:45.075Z,61.70
2022-10-04T09:02:00.253Z,58.84
2022-10-04T09:04:37.012Z,61.86
2022-10-04T09:07:23.819Z,63.49
2022-10-04T09:10:12.038Z,60.98
2022-10-04T09:13:22.445Z,59.97
2022-10-04T09:15:57.154Z,56.83
2022-10-04T09:18:50.715Z,61.43
2022-10-04T09:21:35.410Z,65.31
2022-10-04T09:24:37.876Z,62.41
2022-10-04T09:27:05.706Z,59.65
2022-10-04T09:30:11.606Z,62.28
2022-10-04T09:33:30.354Z,62.87
2022-10-04T09:36:24.247Z,58.66
2022-10-04T09:39:29.404Z,59.39
2022-10-04T09:42:18.893Z,62.45
2022-10-04T09:44:58.033Z,63.52
2022-10-04T09:47:32.068Z,60.78
2022-10-04T09:50:24.431Z,58.09
2022-10-04T09:52:59.235Z,57.99
2022-10-04T09:55:49.718Z,59.83
2022-10-04T09:58:46.428Z,62.18
2022-10-04T10:01:41.052Z,61.68
2022-10-04T10:04:36.410Z,58.51
2022-10-04T10:07:18.863Z,59.94
2022-10-04T10:10:45.739Z,62.33
2022-10-04T10:13:32.300Z,55.78
2022-10-04T10:16:12.453Z,59.09
2022-10-04T10:19:19.645Z,60.52
2022-10-04T10:21:58.014Z,62.86
2022-10-04T10:24:45.266Z,59.17
2022-10-04T10:27:25.505Z,57.64
2022-10-04T10:30:15.579Z,60.46
2022-10-04T10:33:06.778Z,62.47
2022-10-04T10:36:11.936Z,60.28
2022-10-04T10:38:48.676Z,58.04
2022-10-04T10:41:44.615Z,60.24
2022-10-04T10:44:29.820Z,62.28
2022-10-04T10:47:22.552Z,61.60
2022-10-04T10:50:05.728Z,57.42
2022-10-04T10:52:54.740Z,56.95
2022-10-04T10:55:41.629Z,58.84
2022-10-04T10:58:34.568Z,58.74
2022-10-04T11:01:25.964Z,60.40
2022-10-04T11:04:38.943Z,60.08
2022-10-04T11:07:25.457Z,60.39
2022-10-04T11:10:15.578Z,60.17
2022-10-04T11:13:06.439Z,62.13
2022-10-04T11:15:53.023Z,61.61
2022-10-04T11:18:26.989Z,55.02
2022-10-04T11:21:03.613Z,56.00
2022-10-04T11:24:22.318Z,57.46
2022-10-04T11:27:12.135Z,60.00
2022-10-04T11:29:59.099Z,60.89
2022-10-04T11:32:54.224Z,61.84
2022-10-04T11:35:31.171Z,63.67
2022-10-04T11:38:12.226Z,58.90
2022-10-04T11:40:50.243Z,56.05
2022-10-04T11:43:36.468Z,57.59
2022-10-04T11:46:14.289Z,59.24
2022-10-04T11:48:42.139Z,59.49
2022-10-04T11:51:48.840Z,59.86
2022-10-04T11:54:29.308Z,57.11
2022-10-04T11:57:40.043Z,56.70
2022-10-04T12:00:20.815Z,56.44
2022-10-04T12:03:22.974Z,56.13
2022-10-04T12:06:09.625Z,53.99
2022-10-04T12:09:04.977Z,52.16
2022-10-04T12:12:39.695Z,51.78
2022-10-04T12:15:33.235Z,52.89
2022-10-04T12:18:28.677Z,53.11
2022-10-04T12:21:35.196Z,52.98
2022-10-04T12:24:15.999Z,52.09
2022-10-04T12:27:08.506Z,52.88
2022-10-04T12:29:55.168Z,54.45
2022-10-04T12:32:27.217Z,55.41
2022-10-04T12:35:09.966Z,54.36
2022-10-04T12:37:42.200Z,54.29
2022-10-04T12:40:09.959Z,54.67
2022-10-04T12:42:55.891Z,55.32
2022-10-04T12:45:26.461Z,56.56
2022-10-04T12:48:09.179Z,57.07
2022-10-04T12:51:00.254Z,57.99
2022-10-04T12:53:58.848Z,58.13
2022-10-04T12:56:42.791Z,57.38
2022-10-04T12:59:46.224Z,56.51
2022-10-04T13:02:44.551Z,54.38
2022-10-04T13:05:26.626Z,53.09
2022-10-04T13:08:07.732Z,53.16
2022-10-04T13:10:56.572Z,53.80
2022-10-04T13:13:36.202Z,53.30
2022-10-04T13:19:12.675Z,52.99
2022-10-04T13:21:52.750Z,53.29
2022-10-04T13:24:55.661Z,53.24
2022-10-04T13:27:48.522Z,51.96
2022-10-04T13:30:28.958Z,51.39
2022-10-04T13:32:56.982Z,51.45
2022-10-04T13:35:46.887Z,51.70
2022-10-04T13:38:33.554Z,50.98
2022-10-04T13:41:20.212Z,50.40
2022-10-04T13:43:51.064Z,48.66
2022-10-04T13:46:26.473Z,46.89
2022-10-04T13:48:57.068Z,46.28
2022-10-04T13:52:13.626Z,47.02
2022-10-04T13:55:11.747Z,47.50
2022-10-04T13:58:00.153Z,48.42
2022-10-04T14:00:55.823Z,48.49
2022-10-04T14:03:33.098Z,47.92
2022-10-04T14:06:14.929Z,48.38
2022-10-04T14:08:56.124Z,48.34
2022-10-04T14:12:07.356Z,46.28
2022-10-04T14:14:59.158Z,45.12
2022-10-04T14:17:48.424Z,46.73
2022-10-04T14:20:41.334Z,46.68
2022-10-04T14:23:26.014Z,48.41
2022-10-04T14:26:18.186Z,47.72
2022-10-04T14:28:59.019Z,48.63
2022-10-04T14:31:36.814Z,49.40
2022-10-04T14:34:26.945Z,49.08
2022-10-04T14:37:11.436Z,48.53
2022-10-04T14:39:55.241Z,48.45
2022-10-04T14:42:46.758Z,48.80
2022-10-04T14:45:40.640Z,48.94
2022-10-04T14:48:29.857Z,49.62
2022-10-04T14:51:16.835Z,49.88
2022-10-04T14:54:04.511Z,49.67
2022-10-04T14:56:40.013Z,49.99
2022-10-04T14:59:29.068Z,50.97
2022-10-04T15:01:59.695Z,50.20
2022-10-04T15:04:37.038Z,49.06
2022-10-04T15:07:20.569Z,48.68
2022-10-04T15:10:19.736Z,48.20
2022-10-04T15:13:12.366Z,48.23
2022-10-04T15:15:43.585Z,47.55
2022-10-04T15:18:31.376Z,46.21
2022-10-04T15:21:12.645Z,45.33
2022-10-04T15:23:47.894Z,43.69
2022-10-04T15:26:18.449Z,43.04
2022-10-04T15:29:04.122Z,42.45
2022-10-04T15:31:50.688Z,41.46
2022-10-04T15:34:50.597Z,40.34
2022-10-04T15:37:37.345Z,40.08
2022-10-04T15:40:29.368Z,40.34
2022-10-04T15:43:24.831Z,40.46
2022-10-04T15:46:20.476Z,40.36
2022-10-04T15:49:04.134Z,40.59
2022-10-04T15:52:05.920Z,40.94
2022-10-04T15:54:58.791Z,42.54
2022-10-04T15:57:41.084Z,43.73
2022-10-04T16:00:14.028Z,44.76
2022-10-04T16:02:50.845Z,44.70
2022-10-04T16:05:21.807Z,46.03
2022-10-04T16:08:18.806Z,47.37
2022-10-04T16:11:04.789Z,47.84
2022-10-04T16:13:42.252Z,50.03
2022-10-04T16:16:31.975Z,51.11
2022-10-04T16:19:33.586Z,52.45
2022-10-04T16:22:31.007Z,53.24
2022-10-04T16:25:19.979Z,54.19
2022-10-04T16:27:57.181Z,55.61
2022-10-04T16:30:41.143Z,57.25
2022-10-04T16:33:37.577Z,59.48
2022-10-04T16:36:14.732Z,62.02
2022-10-04T16:39:17.458Z,66.25
2022-10-04T16:42:09.101Z,67.36
2022-10-04T16:44:58.416Z,66.08
2022-10-04T16:47:30.177Z,59.89
2022-10-04T16:50:01.024Z,57.24
2022-10-04T16:52:59.186Z,58.49
2022-10-04T16:55:56.233Z,59.46
2022-10-04T16:58:27.285Z,66.69
2022-10-04T17:01:23.239Z,67.55
2022-10-04T17:04:16.088Z,64.66
2022-10-04T17:07:00.765Z,59.53
2022-10-04T17:09:47.988Z,57.74
2022-10-04T17:12:47.279Z,59.21
2022-10-04T17:15:15.166Z,66.37
2022-10-04T17:17:55.055Z,67.29
2022-10-04T17:20:38.076Z,63.89
2022-10-04T17:23:24.716Z,58.85
2022-10-04T17:26:11.396Z,57.37
2022-10-04T17:29:06.764Z,60.05
2022-10-04T17:32:17.007Z,66.62
2022-10-04T17:35:09.988Z,65.58
2022-10-04T17:37:57.902Z,63.51
2022-10-04T17:40:56.612Z,59.80
2022-10-04T17:43:30.991Z,58.52
2022-10-04T17:46:20.745Z,61.21
2022-10-04T17:49:16.586Z,67.61
2022-10-04T17:52:09.536Z,63.64
2022-10-04T17:55:18.004Z,61.98
2022-10-04T17:57:51.836Z,59.02
2022-10-04T18:00:26.027Z,62.35
2022-10-04T18:03:16.623Z,64.84
2022-10-04T18:05:53.275Z,63.57
2022-10-04T18:08:30.847Z,62.53
2022-10-04T18:11:04.386Z,58.97
2022-10-04T18:13:58.816Z,61.31
2022-10-04T18:16:32.200Z,65.50
2022-10-04T18:19:29.752Z,63.63
2022-10-04T18:22:19.771Z,61.77
2022-10-04T18:25:05.392Z,60.34
2022-10-04T18:27:36.451Z,58.77
2022-10-04T18:30:14.327Z,62.98
2022-10-04T18:32:55.762Z,65.96
2022-10-04T18:35:33.389Z,62.25
2022-10-04T18:38:05.166Z,62.07
2022-10-04T18:40:53.328Z,58.38
2022-10-04T18:43:35.378Z,59.20
2022-10-04T18:46:14.685Z,63.60
2022-10-04T18:48:57.218Z,64.56
2022-10-04T18:51:45.266Z,61.93
2022-10-04T18:54:29.738Z,58.15
2022-10-04T18:57:18.363Z,57.24
2022-10-04T19:00:29.163Z,59.10
2022-10-04T19:03:20.725Z,66.96
2022-10-04T19:05:59.945Z,65.73
2022-10-04T19:08:48.680Z,61.90
2022-10-04T19:12:14.391Z,58.54
2022-10-04T19:15:18.726Z,58.46
2022-10-04T19:18:05.338Z,65.13
2022-10-04T19:20:43.504Z,66.01
2022-10-04T19:23:53.377Z,63.19
2022-10-04T19:26:32.302Z,59.58
2022-10-04T19:29:47.792Z,58.72
2022-10-04T19:32:34.349Z,65.23
2022-10-04T19:35:21.701Z,64.87
2022-10-04T19:38:15.471Z,62.08
2022-10-04T19:40:59.828Z,60.76
2022-10-04T19:43:47.872Z,57.64
2022-10-04T19:46:56.516Z,57.33
2022-10-04T19:49:49.338Z,64.13
2022-10-04T19:52:46.660Z,65.08
2022-10-04T19:55:42.979Z,62.47
2022-10-04T19:58:14.964Z,59.53
2022-10-04T20:00:42.973Z,59.51
2022-10-04T20:03:13.368Z,60.06
2022-10-04T20:05:47.148Z,64.70
2022-10-04T20:08:17.412Z,66.26
2022-10-04T20:10:46.074Z,62.56
2022-10-04T20:13:17.395Z,61.95
2022-10-04T20:15:50.689Z,60.84
2022-10-04T20:18:32.473Z,58.14
2022-10-04T20:21:01.752Z,57.29
2022-10-04T20:23:39.196Z,63.05
2022-10-04T20:26:55.539Z,65.95
2022-10-04T20:29:39.402Z,64.07
2022-10-04T20:32:34.892Z,61.94
2022-10-04T20:35:06.183Z,61.58
2022-10-04T20:38:13.493Z,60.58
2022-10-04T20:40:46.168Z,57.36
2022-10-04T20:43:14.805Z,58.10
2022-10-04T20:45:52.369Z,64.24
2022-10-04T20:48:25.592Z,66.09
2022-10-04T20:50:55.271Z,62.87
2022-10-04T20:53:27.016Z,61.00
2022-10-04T20:56:20.390Z,58.73
2022-10-04T20:59:14.643Z,57.23
2022-10-04T21:01:47.039Z,63.30
2022-10-04T21:04:32.705Z,65.47
2022-10-04T21:07:06.092Z,63.43
2022-10-04T21:09:37.621Z,61.37
2022-10-04T21:12:08.118Z,57.98
2022-10-04T21:14:38.311Z,58.29
2022-10-04T21:17:28.377Z,63.68
2022-10-04T21:19:57.214Z,65.30
2022-10-04T21:22:31.357Z,62.39
2022-10-04T21:25:05.667Z,61.13
2022-10-04T21:27:36.290Z,58.16
2022-10-04T21:30:15.776Z,58.24
2022-10-04T21:32:43.967Z,64.32
2022-10-04T21:35:13.069Z,64.39
2022-10-04T21:37:41.066Z,62.79
2022-10-04T21:40:09.343Z,60.65
2022-10-04T21:42:37.266Z,57.94
2022-10-04T21:45:05.550Z,57.87
2022-10-04T21:47:33.663Z,63.12
2022-10-04T21:50:01.535Z,65.23
2022-10-04T21:52:29.402Z,62.92
2022-10-04T21:54:57.288Z,61.61
2022-10-04T21:57:25.106Z,60.68
2022-10-04T21:59:52.957Z,61.61
2022-10-04T22:02:20.911Z,60.82
2022-10-04T22:04:49.020Z,58.98
2022-10-04T22:07:16.872Z,57.97
2022-10-04T22:09:44.713Z,64.87
2022-10-04T22:12:12.603Z,67.89
2022-10-04T22:14:40.860Z,65.68
2022-10-04T22:17:08.742Z,63.68
2022-10-04T22:19:36.611Z,60.55
2022-10-04T22:22:04.533Z,57.76
2022-10-04T22:24:32.423Z,57.09
2022-10-04T22:27:00.490Z,59.86
2022-10-04T22:29:31.301Z,65.18
2022-10-04T22:31:59.836Z,66.06
2022-10-04T22:34:27.677Z,63.18
2022-10-04T22:36:55.809Z,60.90
2022-10-04T22:39:25.314Z,57.47
2022-10-04T22:42:00.721Z,56.68
2022-10-04T22:44:36.601Z,58.57
2022-10-04T22:47:10.849Z,65.94
2022-10-04T22:49:42.113Z,67.22
2022-10-04T22:52:23.386Z,62.71
2022-10-04T22:54:53.681Z,60.70
2022-10-04T22:57:21.890Z,56.59
2022-10-04T22:59:51.859Z,56.80
2022-10-04T23:02:30.525Z,59.28
2022-10-04T23:05:09.984Z,65.04
2022-10-04T23:07:38.783Z,64.93
2022-10-04T23:10:07.796Z,62.16
2022-10-04T23:12:36.087Z,61.45
2022-10-04T23:15:06.510Z,60.01
2022-10-04T23:17:38.518Z,59.96
2022-10-04T23:20:09.168Z,58.14
2022-10-04T23:22:37.227Z,59.60
2022-10-04T23:25:24.918Z,64.65
2022-10-04T23:27:53.456Z,66.46
2022-10-04T23:30:22.857Z,62.55
2022-10-04T23:32:53.585Z,61.52
2022-10-04T23:35:25.323Z,58.50
2022-10-04T23:37:54.872Z,60.96
2022-10-04T23:40:25.691Z,65.68
2022-10-04T23:42:56.876Z,65.77
2022-10-04T23:45:25.931Z,64.16
2022-10-04T23:47:57.297Z,62.10
2022-10-04T23:50:37.688Z,60.90
2022-10-04T23:53:12.273Z,59.61
2022-10-04T23:55:41.517Z,56.87
2022-10-04T23:58:20.536Z,56.83
